Time;durP1;ratioP1;P1;durP2;ratioP2;P2;SDS_P1;SDS_P2;PMS_P1;PMS_P2;Temp;Humidity;BMP_temperature;BMP_pressure;BME280_temperature;BME280_humidity;BME280_pressure;Samples;Min_cycle;Max_cycle;Signal;HPM_P1;HPM_P2
2023/07/15 00:00:49;;;;;;;6.65;5.20;;;;;;;-140.66;100.00;55571.53;5101175;28;20039;-73
2023/07/15 00:03:34;;;;;;;7.38;5.05;;;;;;;-140.66;100.00;55571.53;5102055;28;20107;-73
2023/07/15 00:06:21;;;;;;;8.30;5.10;;;;;;;-140.66;100.00;55571.53;5115020;28;20336;-72
2023/07/15 00:09:08;;;;;;;7.95;5.60;;;;;;;-140.66;100.00;55571.53;5115925;28;20040;-73
2023/07/15 00:11:54;;;;;;;8.13;5.40;;;;;;;-140.66;100.00;55571.53;5115932;28;20043;-73
2023/07/15 00:14:40;;;;;;;7.38;5.47;;;;;;;-140.66;100.00;55571.53;5100234;28;20448;-73
2023/07/15 00:17:25;;;;;;;6.45;5.60;;;;;;;-140.66;100.00;55571.53;5116270;28;20101;-73
2023/07/15 00:20:14;;;;;;;7.57;5.72;;;;;;;-140.66;100.00;55571.53;5115030;28;20066;-73
2023/07/15 00:23:00;;;;;;;7.82;5.15;;;;;;;-140.66;100.00;55571.53;5101447;28;20073;-73
2023/07/15 00:25:47;;;;;;;7.43;5.60;;;;;;;-140.66;100.00;55571.53;5115066;28;20023;-72
2023/07/15 00:28:33;;;;;;;10.63;5.28;;;;;;;-140.66;100.00;55571.53;5116564;28;20468;-73
2023/07/15 00:31:19;;;;;;;9.20;6.25;;;;;;;-140.66;100.00;55571.53;5115372;28;20145;-73
2023/07/15 00:34:05;;;;;;;9.07;5.57;;;;;;;-140.66;100.00;55571.53;5114246;28;20453;-73
2023/07/15 00:36:51;;;;;;;18.30;5.78;;;;;;;-140.66;100.00;55571.53;5115020;28;20027;-73
2023/07/15 00:39:37;;;;;;;8.55;5.93;;;;;;;-140.66;100.00;55571.53;5099891;28;20088;-73
2023/07/15 00:42:50;;;;;;;7.88;5.50;;;;;;;-140.66;100.00;55571.53;5115783;28;20034;-73
2023/07/15 00:45:35;;;;;;;9.00;6.10;;;;;;;-140.66;100.00;55571.53;5114429;28;20045;-73
2023/07/15 00:48:29;;;;;;;7.35;5.72;;;;;;;-140.66;100.00;55571.53;5115927;28;20023;-73
2023/07/15 00:51:15;;;;;;;9.27;5.97;;;;;;;-140.66;100.00;55571.53;5114882;28;20015;-73
2023/07/15 00:54:03;;;;;;;7.95;5.63;;;;;;;-140.66;100.00;55571.53;5115390;28;20028;-74
2023/07/15 00:56:49;;;;;;;11.90;6.18;;;;;;;-140.66;100.00;55571.53;5115108;28;20038;-73
2023/07/15 00:59:38;;;;;;;9.05;6.00;;;;;;;-140.66;100.00;55571.53;5114980;28;20058;-73
2023/07/15 01:02:25;;;;;;;8.88;6.43;;;;;;;-140.66;100.00;55571.53;5113651;28;20364;-73
2023/07/15 01:05:11;;;;;;;9.57;6.22;;;;;;;-140.66;100.00;55571.53;5113882;28;20041;-73
2023/07/15 01:07:57;;;;;;;10.00;6.63;;;;;;;-140.66;100.00;55571.53;5100524;28;20448;-73
2023/07/15 01:10:42;;;;;;;10.15;6.70;;;;;;;-140.66;100.00;55571.53;5114358;28;20425;-73
2023/07/15 01:13:28;;;;;;;11.77;6.88;;;;;;;-140.66;100.00;55571.53;5114525;28;20026;-73
2023/07/15 01:16:14;;;;;;;10.00;6.88;;;;;;;-140.66;100.00;55571.53;5114551;28;20028;-73
2023/07/15 01:19:00;;;;;;;10.45;7.45;;;;;;;-140.66;100.00;55571.53;5114260;28;20360;-72
2023/07/15 01:21:50;;;;;;;10.85;6.75;;;;;;;-140.66;100.00;55571.53;5098882;28;20100;-73
2023/07/15 01:24:36;;;;;;;10.95;7.28;;;;;;;-140.66;100.00;55571.53;5114960;28;20032;-73
2023/07/15 01:27:22;;;;;;;10.02;7.05;;;;;;;-140.66;100.00;55571.53;5114524;28;20333;-73
2023/07/15 01:30:09;;;;;;;9.55;7.47;;;;;;;-140.66;100.00;55571.53;5113366;28;20086;-73
2023/07/15 01:32:55;;;;;;;11.05;7.45;;;;;;;-140.66;100.00;55571.53;5114447;28;20047;-73
2023/07/15 01:35:48;;;;;;;11.50;7.18;;;;;;;-140.66;100.00;55571.53;5113155;28;20053;-73
2023/07/15 01:38:33;;;;;;;11.18;7.35;;;;;;;-140.66;100.00;55571.53;5100196;28;20364;-72
2023/07/15 01:41:19;;;;;;;11.63;6.85;;;;;;;-140.66;100.00;55571.53;5114595;28;20392;-72
2023/07/15 01:44:05;;;;;;;9.18;7.13;;;;;;;-140.66;100.00;55571.53;5114481;28;20102;-73
2023/07/15 01:46:50;;;;;;;8.85;7.18;;;;;;;-140.66;100.00;55571.53;5113714;28;20034;-72
2023/07/15 01:49:36;;;;;;;9.73;7.53;;;;;;;-140.66;100.00;55571.53;5113898;28;20020;-73
2023/07/15 01:52:22;;;;;;;12.18;8.00;;;;;;;-140.66;100.00;55571.53;5112852;28;20069;-73
2023/07/15 01:55:08;;;;;;;11.02;7.78;;;;;;;-140.66;100.00;55571.53;5114126;28;20032;-72
2023/07/15 01:57:53;;;;;;;12.45;6.97;;;;;;;-140.66;100.00;55571.53;5115229;28;20028;-72
2023/07/15 02:00:39;;;;;;;13.23;8.27;;;;;;;-140.66;100.00;55571.53;5113888;28;20037;-72
2023/07/15 02:03:25;;;;;;;12.05;7.65;;;;;;;-140.66;100.00;55571.53;5100051;28;20459;-73
2023/07/15 02:06:12;;;;;;;12.55;7.82;;;;;;;-140.66;100.00;55571.53;5114705;28;20027;-73
2023/07/15 02:08:58;;;;;;;9.70;7.15;;;;;;;-140.66;100.00;55571.53;5113729;28;20480;-73
2023/07/15 02:11:44;;;;;;;10.45;7.43;;;;;;;-140.66;100.00;55571.53;5114074;28;20443;-72
2023/07/15 02:14:30;;;;;;;12.32;7.43;;;;;;;-140.66;100.00;55571.53;5114062;28;20032;-73
2023/07/15 02:17:20;;;;;;;12.43;7.50;;;;;;;-140.66;100.00;55571.53;5099228;28;20023;-73
2023/07/15 02:20:07;;;;;;;9.25;7.25;;;;;;;-140.66;100.00;55571.53;5098697;28;20047;-72
2023/07/15 02:22:53;;;;;;;10.25;7.40;;;;;;;-140.66;100.00;55571.53;5098664;28;20398;-72
2023/07/15 02:25:39;;;;;;;8.40;6.57;;;;;;;-140.66;100.00;55571.53;5113575;28;20045;-73
2023/07/15 02:28:27;;;;;;;9.00;6.63;;;;;;;-140.66;100.00;55571.53;5113932;28;20034;-72
2023/07/15 02:31:13;;;;;;;12.00;6.88;;;;;;;-140.66;100.00;55571.53;5114159;28;20101;-73
2023/07/15 02:33:58;;;;;;;9.82;7.10;;;;;;;-140.66;100.00;55571.53;5113806;28;20115;-74
2023/07/15 02:36:44;;;;;;;10.98;6.50;;;;;;;-140.66;100.00;55571.53;5113829;28;20398;-73
2023/07/15 02:39:33;;;;;;;12.20;7.40;;;;;;;-140.66;100.00;55571.53;5114335;28;20038;-73
2023/07/15 02:42:19;;;;;;;8.77;5.93;;;;;;;-140.66;100.00;55571.53;5115016;28;20016;-73
2023/07/15 02:45:06;;;;;;;9.48;6.30;;;;;;;-140.66;100.00;55571.53;5117147;28;20443;-73
2023/07/15 02:47:52;;;;;;;8.95;6.45;;;;;;;-140.66;100.00;55571.53;5116350;28;20031;-73
2023/07/15 02:50:38;;;;;;;9.63;6.78;;;;;;;-140.66;100.00;55571.53;5117564;28;20020;-73
2023/07/15 02:53:24;;;;;;;14.75;6.65;;;;;;;-140.66;100.00;55571.53;5116899;28;20031;-72
2023/07/15 02:56:10;;;;;;;9.68;6.40;;;;;;;-140.66;100.00;55571.53;5117403;28;20035;-73
2023/07/15 02:58:55;;;;;;;11.27;6.32;;;;;;;-140.66;100.00;55571.53;5116535;28;20019;-73
2023/07/15 03:01:41;;;;;;;11.80;6.30;;;;;;;-140.66;100.00;55571.53;5117171;28;20131;-73
2023/07/15 03:04:27;;;;;;;8.15;5.80;;;;;;;-140.66;100.00;55571.53;5102753;28;20042;-73
2023/07/15 03:07:13;;;;;;;9.73;6.22;;;;;;;-140.66;100.00;55571.53;5116674;28;20031;-73
2023/07/15 03:09:59;;;;;;;13.02;6.47;;;;;;;-140.66;100.00;55571.53;5117635;28;20024;-72
2023/07/15 03:12:47;;;;;;;10.15;6.78;;;;;;;-140.66;100.00;55571.53;5116465;28;20447;-72
2023/07/15 03:15:35;;;;;;;9.85;6.63;;;;;;;-140.66;100.00;55571.53;5117284;28;20027;-73
2023/07/15 03:18:25;;;;;;;13.40;7.28;;;;;;;-140.66;100.00;55571.53;5102101;28;20471;-73
2023/07/15 03:21:10;;;;;;;11.95;7.38;;;;;;;-140.66;100.00;55571.53;5116003;28;20452;-72
2023/07/15 03:23:56;;;;;;;12.15;6.93;;;;;;;-140.66;100.00;55571.53;5116282;28;20019;-73
2023/07/15 03:26:42;;;;;;;10.45;7.30;;;;;;;-140.66;100.00;55571.53;5116349;28;20032;-73
2023/07/15 03:29:30;;;;;;;9.30;7.22;;;;;;;-140.66;100.00;55571.53;5116946;28;20023;-73
2023/07/15 03:32:16;;;;;;;11.80;7.32;;;;;;;-140.66;100.00;55571.53;5101907;28;20035;-73
2023/07/15 03:35:03;;;;;;;11.43;7.07;;;;;;;-140.66;100.00;55571.53;5117166;28;20121;-73
2023/07/15 03:37:49;;;;;;;19.83;7.70;;;;;;;-140.66;100.00;55571.53;5117718;28;20110;-73
2023/07/15 03:40:35;;;;;;;10.27;6.65;;;;;;;-140.66;100.00;55571.53;5116658;28;20039;-73
2023/07/15 03:43:20;;;;;;;10.23;6.00;;;;;;;-140.66;100.00;55571.53;5101983;28;20024;-73
2023/07/15 03:46:06;;;;;;;13.75;6.50;;;;;;;-140.66;100.00;55571.53;5117474;28;20110;-74
2023/07/15 03:48:52;;;;;;;11.38;6.03;;;;;;;-140.66;100.00;55571.53;5101540;28;20032;-73
2023/07/15 03:51:38;;;;;;;11.85;6.10;;;;;;;-140.66;100.00;55571.53;5116391;28;20027;-72
2023/07/15 03:54:23;;;;;;;8.57;5.13;;;;;;;-140.66;100.00;55571.53;5115338;28;20432;-73
2023/07/15 03:57:10;;;;;;;10.40;5.60;;;;;;;-140.66;100.00;55571.53;5115800;28;20055;-73
2023/07/15 03:59:55;;;;;;;13.50;5.55;;;;;;;-140.66;100.00;55571.53;5115479;28;20035;-73
2023/07/15 04:02:44;;;;;;;9.65;5.35;;;;;;;-140.66;100.00;55571.53;5115486;28;20028;-73
2023/07/15 04:05:30;;;;;;;8.02;5.32;;;;;;;-140.66;100.00;55571.53;5116236;28;20042;-73
2023/07/15 04:08:16;;;;;;;12.32;5.35;;;;;;;-140.66;100.00;55571.53;5116007;28;20027;-72
2023/07/15 04:11:02;;;;;;;10.95;5.40;;;;;;;-140.66;100.00;55571.53;5116886;28;20027;-73
2023/07/15 04:13:48;;;;;;;8.23;5.15;;;;;;;-140.66;100.00;55571.53;5116657;28;20028;-72
2023/07/15 04:16:33;;;;;;;11.57;5.07;;;;;;;-140.66;100.00;55571.53;5115907;28;20124;-73
2023/07/15 04:19:19;;;;;;;7.38;4.70;;;;;;;-140.66;100.00;55571.53;5102243;28;20019;-73
2023/07/15 04:22:05;;;;;;;10.80;5.25;;;;;;;-140.66;100.00;55571.53;5115510;28;20043;-73
2023/07/15 04:24:50;;;;;;;12.95;5.75;;;;;;;-140.66;100.00;55571.53;5115618;28;20031;-73
2023/07/15 04:27:38;;;;;;;11.35;6.45;;;;;;;-140.66;100.00;55571.53;5115202;28;20350;-73
2023/07/15 04:30:24;;;;;;;14.48;7.05;;;;;;;-140.66;100.00;55571.53;5115800;28;20027;-73
2023/07/15 04:33:10;;;;;;;12.75;6.75;;;;;;;-140.66;100.00;55571.53;5115344;28;20059;-73
2023/07/15 04:35:56;;;;;;;13.25;6.75;;;;;;;-140.66;100.00;55571.53;5113926;28;20050;-74
2023/07/15 04:38:42;;;;;;;17.27;7.22;;;;;;;-140.66;100.00;55571.53;5116106;28;20038;-74
2023/07/15 04:41:27;;;;;;;15.52;7.32;;;;;;;-140.66;100.00;55571.53;5115854;28;20063;-74
2023/07/15 04:44:13;;;;;;;13.95;6.20;;;;;;;-140.66;100.00;55571.53;5100326;28;20466;-74
2023/07/15 04:46:59;;;;;;;10.70;6.15;;;;;;;-140.66;100.00;55571.53;5114683;28;20290;-73
2023/07/15 04:49:45;;;;;;;10.93;6.43;;;;;;;-140.66;100.00;55571.53;5119857;28;20050;-72
2023/07/15 04:52:30;;;;;;;9.00;6.05;;;;;;;-140.66;100.00;55571.53;5132167;28;20109;-75
2023/07/15 04:55:16;;;;;;;10.65;6.28;;;;;;;-140.66;100.00;55571.53;5114549;28;20024;-73
2023/07/15 04:58:02;;;;;;;11.50;6.75;;;;;;;-140.66;100.00;55571.53;5101102;28;20061;-73
2023/07/15 05:00:48;;;;;;;14.43;6.57;;;;;;;-140.66;100.00;55571.53;5114791;28;20351;-74
2023/07/15 05:03:34;;;;;;;11.25;6.43;;;;;;;-140.66;100.00;55571.53;5113549;28;20395;-74
2023/07/15 05:06:21;;;;;;;10.85;6.10;;;;;;;-140.66;100.00;55571.53;5114153;28;20023;-74
2023/07/15 05:09:07;;;;;;;14.05;6.40;;;;;;;-140.66;100.00;55571.53;5115140;28;20035;-74
2023/07/15 05:11:52;;;;;;;16.65;7.25;;;;;;;-140.66;100.00;55571.53;5115065;28;20020;-73
2023/07/15 05:14:38;;;;;;;11.63;6.40;;;;;;;-140.66;100.00;55571.53;5114120;28;20477;-74
2023/07/15 05:17:25;;;;;;;13.15;5.70;;;;;;;-140.66;100.00;55571.53;5114233;28;20383;-74
2023/07/15 05:20:13;;;;;;;11.57;5.85;;;;;;;-140.66;100.00;55571.53;5114498;28;20105;-74
2023/07/15 05:23:00;;;;;;;10.02;6.47;;;;;;;-140.66;100.00;55571.53;5102003;28;20094;-73
2023/07/15 05:25:45;;;;;;;11.68;6.28;;;;;;;-140.66;100.00;55571.53;5115377;28;20027;-76
2023/07/15 05:28:32;;;;;;;12.80;6.30;;;;;;;-140.66;100.00;55571.53;5117386;28;20132;-75
2023/07/15 05:31:18;;;;;;;11.00;6.40;;;;;;;-140.66;100.00;55571.53;5117187;28;20034;-73
2023/07/15 05:34:04;;;;;;;11.32;6.55;;;;;;;-140.66;100.00;55571.53;5100128;28;20114;-74
2023/07/15 05:36:49;;;;;;;18.20;6.40;;;;;;;-140.66;100.00;55571.53;5114408;28;20019;-74
2023/07/15 05:39:35;;;;;;;12.00;6.10;;;;;;;-140.66;100.00;55571.53;5114862;28;20119;-74
2023/07/15 05:42:21;;;;;;;10.05;5.63;;;;;;;-140.66;100.00;55571.53;5113814;28;20200;-74
2023/07/15 05:45:07;;;;;;;9.10;5.20;;;;;;;-140.66;100.00;55571.53;5114312;28;20027;-74
2023/07/15 05:47:53;;;;;;;8.48;5.00;;;;;;;-140.66;100.00;55571.53;5113849;28;20407;-73
2023/07/15 05:50:39;;;;;;;10.30;4.95;;;;;;;-140.66;100.00;55571.53;5100796;28;20027;-74
2023/07/15 05:53:25;;;;;;;11.07;5.78;;;;;;;-140.66;100.00;55571.53;5100829;28;20020;-74
2023/07/15 05:56:11;;;;;;;7.45;4.90;;;;;;;-140.66;100.00;55571.53;5114231;28;20092;-75
2023/07/15 05:58:57;;;;;;;9.25;5.10;;;;;;;-140.66;100.00;55571.53;5100307;28;20089;-74
2023/07/15 06:01:43;;;;;;;13.05;5.38;;;;;;;-140.66;100.00;55571.53;5115101;28;20023;-73
2023/07/15 06:04:29;;;;;;;12.95;5.45;;;;;;;-140.66;100.00;55571.53;5099967;28;20092;-73
2023/07/15 06:07:15;;;;;;;7.95;5.25;;;;;;;-140.66;100.00;55571.53;5099403;28;20089;-74
2023/07/15 06:10:01;;;;;;;12.68;5.03;;;;;;;-140.66;100.00;55571.53;5099546;28;20092;-74
2023/07/15 06:12:47;;;;;;;8.45;5.10;;;;;;;-140.66;100.00;55571.53;5115067;28;20031;-74
2023/07/15 06:15:35;;;;;;;10.20;4.72;;;;;;;-140.66;100.00;55571.53;5114711;28;20032;-74
2023/07/15 06:18:20;;;;;;;10.00;5.07;;;;;;;-140.66;100.00;55571.53;5117919;28;20055;-75
2023/07/15 06:21:07;;;;;;;10.20;5.35;;;;;;;-140.66;100.00;55571.53;5102521;28;20055;-74
2023/07/15 06:23:53;;;;;;;9.05;5.10;;;;;;;-140.66;100.00;55571.53;5118622;28;20084;-75
2023/07/15 06:26:39;;;;;;;9.98;5.40;;;;;;;-140.66;100.00;55571.53;5104270;28;20024;-74
2023/07/15 06:29:25;;;;;;;14.23;5.15;;;;;;;-140.66;100.00;55571.53;5117413;28;20038;-75
2023/07/15 06:32:11;;;;;;;9.05;5.35;;;;;;;-140.66;100.00;55571.53;5104699;28;20106;-74
2023/07/15 06:34:56;;;;;;;10.80;4.70;;;;;;;-140.66;100.00;55571.53;5117692;28;20027;-74
2023/07/15 06:37:45;;;;;;;10.05;4.97;;;;;;;-140.66;100.00;55571.53;5103440;28;20355;-75
2023/07/15 06:40:31;;;;;;;11.57;4.97;;;;;;;-140.66;100.00;55571.53;5117603;28;20111;-75
2023/07/15 06:43:17;;;;;;;6.57;4.55;;;;;;;-140.66;100.00;55571.53;5119048;28;20497;-77
2023/07/15 06:46:02;;;;;;;9.30;5.05;;;;;;;-140.66;100.00;55571.53;5118118;28;20054;-75
2023/07/15 06:48:48;;;;;;;7.53;4.45;;;;;;;-140.66;100.00;55571.53;5117984;28;20471;-74
2023/07/15 06:51:34;;;;;;;12.40;4.78;;;;;;;-140.66;100.00;55571.53;5102424;28;20031;-74
2023/07/15 06:54:20;;;;;;;9.52;4.70;;;;;;;-140.66;100.00;55571.53;5117541;28;20027;-75
2023/07/15 06:57:06;;;;;;;15.25;4.47;;;;;;;-140.66;100.00;55571.53;5117295;28;20023;-74
2023/07/15 06:59:52;;;;;;;13.18;4.38;;;;;;;-140.66;100.00;55571.53;5117332;28;20040;-74
2023/07/15 07:02:38;;;;;;;9.43;4.90;;;;;;;-140.66;100.00;55571.53;5118254;28;20483;-74
2023/07/15 07:05:23;;;;;;;8.18;4.20;;;;;;;-140.66;100.00;55571.53;5117341;28;20039;-74
2023/07/15 07:08:09;;;;;;;8.15;4.25;;;;;;;-140.66;100.00;55571.53;5117771;28;20100;-74
2023/07/15 07:10:55;;;;;;;8.85;4.70;;;;;;;-140.66;100.00;55571.53;5116503;28;20368;-74
2023/07/15 07:13:40;;;;;;;9.32;4.20;;;;;;;-140.66;100.00;55571.53;5117744;28;20027;-74
2023/07/15 07:16:26;;;;;;;11.15;4.40;;;;;;;-140.66;100.00;55571.53;5102805;28;20131;-74
2023/07/15 07:19:12;;;;;;;11.75;4.63;;;;;;;-140.66;100.00;55571.53;5116755;28;20027;-74
2023/07/15 07:21:58;;;;;;;8.75;4.32;;;;;;;-140.66;100.00;55571.53;5116541;28;20046;-73
2023/07/15 07:24:45;;;;;;;8.63;4.10;;;;;;;-140.66;100.00;55571.53;5116669;28;20034;-75
2023/07/15 07:27:31;;;;;;;12.65;4.15;;;;;;;-140.66;100.00;55571.53;5116395;28;20032;-75
2023/07/15 07:30:17;;;;;;;10.32;4.30;;;;;;;-140.66;100.00;55571.53;5116697;28;20035;-74
2023/07/15 07:33:03;;;;;;;9.07;4.15;;;;;;;-140.66;100.00;55571.53;5116478;28;20027;-75
2023/07/15 07:35:48;;;;;;;15.88;5.00;;;;;;;-140.66;100.00;55571.53;5102094;28;20089;-75
2023/07/15 07:38:34;;;;;;;8.68;4.40;;;;;;;-140.66;100.00;55571.53;5116537;28;20121;-75
2023/07/15 07:41:20;;;;;;;8.25;3.90;;;;;;;-140.66;100.00;55571.53;5117047;28;20451;-75
2023/07/15 07:44:06;;;;;;;15.13;4.20;;;;;;;-140.66;100.00;55571.53;5116489;28;20106;-75
2023/07/15 07:46:52;;;;;;;6.20;4.05;;;;;;;-140.66;100.00;55571.53;5116022;28;20114;-74
2023/07/15 07:49:37;;;;;;;9.55;4.22;;;;;;;-140.66;100.00;55571.53;5116072;28;20023;-74
2023/07/15 07:52:23;;;;;;;14.73;4.22;;;;;;;-140.66;100.00;55571.53;5102339;28;20133;-74
2023/07/15 07:55:09;;;;;;;15.30;4.43;;;;;;;-140.66;100.00;55571.53;5102704;28;20475;-74
2023/07/15 07:57:54;;;;;;;7.10;4.18;;;;;;;-140.66;100.00;55571.53;5116908;28;20428;-74
2023/07/15 08:00:40;;;;;;;10.90;4.75;;;;;;;-140.66;100.00;55571.53;5116186;28;20015;-74
2023/07/15 08:03:26;;;;;;;11.30;4.30;;;;;;;-140.66;100.00;55571.53;5116690;28;20031;-74
2023/07/15 08:06:12;;;;;;;7.40;4.45;;;;;;;-140.66;100.00;55571.53;5115663;28;20028;-75
2023/07/15 08:08:57;;;;;;;10.80;4.38;;;;;;;-140.66;100.00;55571.53;5101391;28;20024;-74
2023/07/15 08:11:44;;;;;;;8.75;4.25;;;;;;;-140.66;100.00;55571.53;5117148;28;20031;-74
2023/07/15 08:14:30;;;;;;;6.75;3.90;;;;;;;-140.66;100.00;55571.53;5115646;28;20096;-74
2023/07/15 08:17:16;;;;;;;9.65;4.40;;;;;;;-140.66;100.00;55571.53;5115436;28;20459;-74
2023/07/15 08:20:03;;;;;;;7.28;4.00;;;;;;;-140.66;100.00;55571.53;5115729;28;20090;-75
2023/07/15 08:22:49;;;;;;;7.95;4.45;;;;;;;-140.66;100.00;55571.53;5115799;28;20023;-75
2023/07/15 08:25:37;;;;;;;6.65;4.40;;;;;;;-140.66;100.00;55571.53;5116038;28;20027;-75
2023/07/15 08:28:23;;;;;;;8.70;5.05;;;;;;;-140.66;100.00;55571.53;5115462;28;20034;-74
2023/07/15 08:31:08;;;;;;;7.30;4.47;;;;;;;-140.66;100.00;55571.53;5115090;28;20398;-74
2023/07/15 08:33:54;;;;;;;10.77;4.30;;;;;;;-140.66;100.00;55571.53;5115911;28;20115;-74
2023/07/15 08:36:40;;;;;;;8.68;4.28;;;;;;;-140.66;100.00;55571.53;5116032;28;20045;-74
2023/07/15 08:39:26;;;;;;;12.05;4.43;;;;;;;-140.66;100.00;55571.53;5114957;28;20031;-74
2023/07/15 08:42:12;;;;;;;11.95;4.43;;;;;;;-140.66;100.00;55571.53;5100653;28;20023;-74
2023/07/15 08:44:58;;;;;;;9.18;4.07;;;;;;;-140.66;100.00;55571.53;5114815;28;20023;-74
2023/07/15 08:47:44;;;;;;;15.00;4.93;;;;;;;-140.66;100.00;55571.53;5101287;28;20093;-74
2023/07/15 08:50:34;;;;;;;8.40;4.40;;;;;;;-140.66;100.00;55571.53;5115373;28;20019;-75
2023/07/15 08:53:25;;;;;;;12.43;4.57;;;;;;;-140.66;100.00;55571.53;5114849;28;20039;-76
2023/07/15 08:56:13;;;;;;;10.85;4.15;;;;;;;-140.66;100.00;55571.53;5115180;28;20046;-74
2023/07/15 08:58:59;;;;;;;8.52;4.47;;;;;;;-140.66;100.00;55571.53;5114430;28;20451;-75
2023/07/15 09:01:44;;;;;;;8.88;4.53;;;;;;;-140.66;100.00;55571.53;5114899;28;20043;-75
2023/07/15 09:04:30;;;;;;;8.50;4.07;;;;;;;-140.66;100.00;55571.53;5114034;28;20023;-74
2023/07/15 09:07:16;;;;;;;10.82;4.25;;;;;;;-140.66;100.00;55571.53;5115416;28;20023;-75
2023/07/15 09:10:05;;;;;;;11.00;4.20;;;;;;;-140.66;100.00;55571.53;5115593;28;20033;-74
2023/07/15 09:12:55;;;;;;;8.35;3.95;;;;;;;-140.66;100.00;55571.53;5116251;28;20100;-74
2023/07/15 09:15:41;;;;;;;7.28;4.18;;;;;;;-140.66;100.00;55571.53;5114884;28;20084;-75
2023/07/15 09:18:27;;;;;;;6.30;3.83;;;;;;;-140.66;100.00;55571.53;5114634;28;20035;-75
2023/07/15 09:21:16;;;;;;;7.80;3.70;;;;;;;-140.66;100.00;55571.53;5114192;28;20081;-75
2023/07/15 09:24:02;;;;;;;15.00;4.28;;;;;;;-140.66;100.00;55571.53;5099833;28;20440;-75
2023/07/15 09:26:53;;;;;;;10.25;3.90;;;;;;;-140.66;100.00;55571.53;5115212;28;20093;-75
2023/07/15 09:29:39;;;;;;;6.13;3.65;;;;;;;-140.66;100.00;55571.53;5114106;28;20027;-75
2023/07/15 09:32:25;;;;;;;11.93;4.15;;;;;;;-140.66;100.00;55571.53;5100850;28;20031;-74
2023/07/15 09:35:11;;;;;;;8.20;4.20;;;;;;;-140.66;100.00;55571.53;5099010;28;20081;-74
2023/07/15 09:37:57;;;;;;;7.38;4.10;;;;;;;-140.66;100.00;55571.53;5100331;28;20038;-75
2023/07/15 09:40:43;;;;;;;5.18;3.40;;;;;;;-140.66;100.00;55571.53;5099821;28;20027;-75
2023/07/15 09:43:45;;;;;;;14.32;4.25;;;;;;;-140.66;100.00;55571.53;5113544;28;20107;-75
2023/07/15 09:46:32;;;;;;;9.18;4.10;;;;;;;-140.66;100.00;55571.53;5114434;28;20035;-74
2023/07/15 09:49:18;;;;;;;6.32;4.10;;;;;;;-140.66;100.00;55571.53;5113316;28;20024;-75
2023/07/15 09:52:05;;;;;;;11.75;3.83;;;;;;;-140.66;100.00;55571.53;5117054;28;20024;-75
2023/07/15 09:54:52;;;;;;;8.25;4.18;;;;;;;-140.66;100.00;55571.53;5126671;28;20008;-74
2023/07/15 09:57:38;;;;;;;9.02;3.97;;;;;;;-140.66;100.00;55571.53;5122150;28;20041;-75
2023/07/15 10:00:27;;;;;;;8.45;4.20;;;;;;;-140.66;100.00;55571.53;5135828;28;20035;-74
2023/07/15 10:03:50;;;;;;;8.27;3.92;;;;;;;-140.66;100.00;55571.53;5121705;28;20030;-74
2023/07/15 10:06:35;;;;;;;7.10;4.03;;;;;;;-140.66;100.00;55571.53;5132736;28;20090;-75
2023/07/15 10:09:22;;;;;;;21.55;4.65;;;;;;;-140.66;100.00;55571.53;5118743;28;20038;-75
2023/07/15 10:12:08;;;;;;;8.80;3.97;;;;;;;-140.66;100.00;55571.53;5118691;28;20027;-76
2023/07/15 10:14:54;;;;;;;7.07;4.20;;;;;;;-140.66;100.00;55571.53;5117924;28;20027;-75
2023/07/15 10:17:40;;;;;;;13.73;4.20;;;;;;;-140.66;100.00;55571.53;5118391;28;20043;-75
2023/07/15 10:20:31;;;;;;;14.02;4.75;;;;;;;-140.66;100.00;55571.53;5103473;28;20075;-75
2023/07/15 10:23:24;;;;;;;8.10;4.20;;;;;;;-140.66;100.00;55571.53;5117691;28;20012;-74
2023/07/15 10:26:10;;;;;;;6.60;4.38;;;;;;;-140.66;100.00;55571.53;5117986;28;20027;-75
2023/07/15 10:28:58;;;;;;;10.77;4.85;;;;;;;-140.66;100.00;55571.53;5103601;28;20106;-75
2023/07/15 10:32:13;;;;;;;8.52;4.28;;;;;;;-140.66;100.00;55571.53;5118898;28;20120;-75
2023/07/15 10:35:04;;;;;;;7.63;4.53;;;;;;;-140.66;100.00;55571.53;5117575;28;20027;-74
2023/07/15 10:37:49;;;;;;;5.10;4.15;;;;;;;-140.66;100.00;55571.53;5117418;28;20448;-75
2023/07/15 10:41:05;;;;;;;6.60;4.50;;;;;;;-140.66;100.00;55571.53;5118353;28;20432;-75
2023/07/15 10:43:50;;;;;;;9.57;4.57;;;;;;;-140.66;100.00;55571.53;5099599;28;20043;-75
2023/07/15 10:46:36;;;;;;;8.88;4.43;;;;;;;-140.66;100.00;55571.53;5117032;28;20031;-75
2023/07/15 10:49:22;;;;;;;9.75;4.50;;;;;;;-140.66;100.00;55571.53;5103081;28;20031;-74
2023/07/15 10:52:08;;;;;;;5.82;4.43;;;;;;;-140.66;100.00;55571.53;5117621;28;20038;-74
2023/07/15 10:54:55;;;;;;;5.47;4.60;;;;;;;-140.66;100.00;55571.53;5117861;28;20106;-75
2023/07/15 10:57:41;;;;;;;10.00;4.60;;;;;;;-140.66;100.00;55571.53;5102637;28;20053;-75
2023/07/15 11:00:28;;;;;;;11.20;4.63;;;;;;;-140.66;100.00;55571.53;5117068;28;20435;-75
2023/07/15 11:03:16;;;;;;;10.57;4.50;;;;;;;-140.66;100.00;55571.53;5115960;28;20370;-74
2023/07/15 11:06:02;;;;;;;8.43;4.75;;;;;;;-140.66;100.00;55571.53;5116978;28;20443;-75
2023/07/15 11:08:48;;;;;;;9.52;4.18;;;;;;;-140.66;100.00;55571.53;5102498;28;20038;-75
2023/07/15 11:11:38;;;;;;;5.72;4.47;;;;;;;-140.66;100.00;55571.53;5116910;28;20051;-75
2023/07/15 11:14:28;;;;;;;8.77;4.95;;;;;;;-140.66;100.00;55571.53;5117756;28;20024;-74
2023/07/15 11:17:17;;;;;;;7.15;4.50;;;;;;;-140.66;100.00;55571.53;5117816;28;20427;-73
2023/07/15 11:20:06;;;;;;;8.40;5.00;;;;;;;-140.66;100.00;55571.53;5117384;28;20048;-74
2023/07/15 11:22:52;;;;;;;12.50;4.35;;;;;;;-140.66;100.00;55571.53;5117518;28;20027;-74
2023/07/15 11:25:38;;;;;;;7.30;4.50;;;;;;;-140.66;100.00;55571.53;5116261;28;20118;-75
2023/07/15 11:28:24;;;;;;;7.32;4.30;;;;;;;-140.66;100.00;55571.53;5116649;28;20398;-74
2023/07/15 11:31:10;;;;;;;8.20;4.47;;;;;;;-140.66;100.00;55571.53;5116217;28;20036;-75
2023/07/15 11:33:57;;;;;;;7.22;4.68;;;;;;;-140.66;100.00;55571.53;5101976;28;20023;-74
2023/07/15 11:36:43;;;;;;;10.98;4.88;;;;;;;-140.66;100.00;55571.53;5117074;28;20038;-74
2023/07/15 11:39:29;;;;;;;9.32;4.20;;;;;;;-140.66;100.00;55571.53;5117219;28;20030;-75
2023/07/15 11:42:15;;;;;;;6.78;4.65;;;;;;;-140.66;100.00;55571.53;5117222;28;20508;-74
2023/07/15 11:45:03;;;;;;;8.50;4.60;;;;;;;-140.66;100.00;55571.53;5116741;28;20027;-74
2023/07/15 11:47:54;;;;;;;8.63;4.10;;;;;;;-140.66;100.00;55571.53;5116283;28;20151;-74
2023/07/15 11:50:40;;;;;;;8.65;4.43;;;;;;;-140.66;100.00;55571.53;5116607;28;20027;-75
2023/07/15 11:53:30;;;;;;;6.28;4.40;;;;;;;-140.66;100.00;55571.53;5116417;28;20062;-75
2023/07/15 11:56:43;;;;;;;9.50;4.43;;;;;;;-140.66;100.00;55571.53;5116451;28;20034;-74
2023/07/15 11:59:32;;;;;;;5.60;4.35;;;;;;;-140.66;100.00;55571.53;5116470;28;20020;-73
2023/07/15 12:02:19;;;;;;;6.93;3.88;;;;;;;-140.66;100.00;55571.53;5116403;28;20359;-75
2023/07/15 12:05:05;;;;;;;6.38;4.30;;;;;;;-140.66;100.00;55571.53;5117458;28;20024;-75
2023/07/15 12:07:52;;;;;;;7.07;4.70;;;;;;;-140.66;100.00;55571.53;5115542;28;20042;-75
2023/07/15 12:10:58;;;;;;;9.75;4.55;;;;;;;-140.66;100.00;55571.53;5115268;28;20035;-75
2023/07/15 12:13:44;;;;;;;7.40;4.57;;;;;;;-140.66;100.00;55571.53;5115183;28;20056;-75
2023/07/15 12:16:31;;;;;;;8.15;5.15;;;;;;;-140.66;100.00;55571.53;5115572;28;20032;-75
2023/07/15 12:19:18;;;;;;;5.35;4.32;;;;;;;-140.66;100.00;55571.53;5116156;28;20038;-74
2023/07/15 12:22:04;;;;;;;10.05;4.95;;;;;;;-140.66;100.00;55571.53;5101708;28;20050;-75
2023/07/15 12:24:50;;;;;;;17.55;4.95;;;;;;;-140.66;100.00;55571.53;5116325;28;20024;-74
2023/07/15 12:27:36;;;;;;;6.35;4.50;;;;;;;-140.66;100.00;55571.53;5114468;28;20504;-75
2023/07/15 12:30:22;;;;;;;13.85;4.55;;;;;;;-140.66;100.00;55571.53;5114133;28;20023;-73
2023/07/15 12:33:08;;;;;;;9.27;4.65;;;;;;;-140.66;100.00;55571.53;5115549;28;20028;-74